createdAt,value
2016-03-31T00:00:02.395Z,0
2016-03-31T00:01:02.398Z,0
2016-03-31T00:02:02.400Z,0
2016-03-31T00:03:02.231Z,0
2016-03-31T00:04:02.390Z,0
2016-03-31T00:05:02.409Z,0
2016-03-31T00:06:02.442Z,0
2016-03-31T00:07:02.381Z,0
2016-03-31T00:08:02.384Z,0
2016-03-31T00:09:02.387Z,0
2016-03-31T00:10:02.390Z,0
2016-03-31T00:11:02.377Z,0
2016-03-31T00:12:02.380Z,0
2016-03-31T00:13:02.398Z,0
2016-03-31T00:14:02.401Z,0
2016-03-31T00:15:02.404Z,0
2016-03-31T00:16:02.375Z,0
2016-03-31T00:17:02.393Z,0
2016-03-31T00:18:02.380Z,0
2016-03-31T00:19:02.381Z,0
2016-03-31T00:20:02.425Z,0
2016-03-31T00:21:02.397Z,0
2016-03-31T00:22:02.399Z,0
2016-03-31T00:23:02.417Z,0
2016-03-31T00:24:02.389Z,0
2016-03-31T00:25:02.407Z,0
2016-03-31T00:26:02.394Z,0
2016-03-31T00:27:02.382Z,0
2016-03-31T00:28:02.399Z,0
2016-03-31T00:29:02.402Z,0
2016-03-31T00:30:02.390Z,0
2016-03-31T00:31:02.240Z,0
2016-03-31T00:32:02.447Z,0
2016-03-31T00:33:02.390Z,0
2016-03-31T00:34:02.392Z,0
2016-03-31T00:35:02.395Z,0
2016-03-31T00:36:02.398Z,0
2016-03-31T00:37:02.417Z,0
2016-03-31T00:38:02.403Z,0
2016-03-31T00:39:02.389Z,0
2016-03-31T00:40:02.393Z,0
2016-03-31T00:41:02.395Z,0
2016-03-31T00:42:02.398Z,0
2016-03-31T00:43:02.401Z,0
2016-03-31T00:44:02.435Z,0
2016-03-31T00:45:02.406Z,0
2016-03-31T00:46:02.378Z,0
2016-03-31T00:47:02.396Z,0
2016-03-31T00:48:02.383Z,0
2016-03-31T00:49:02.386Z,0
2016-03-31T00:50:02.435Z,0
2016-03-31T00:51:02.392Z,0
2016-03-31T00:52:02.394Z,0
2016-03-31T00:53:02.397Z,0
2016-03-31T00:54:02.243Z,0
2016-03-31T00:55:02.402Z,0
2016-03-31T00:56:02.404Z,0
2016-03-31T00:57:02.438Z,0
2016-03-31T00:58:02.394Z,0
2016-03-31T00:59:02.397Z,0
2016-03-31T01:00:02.399Z,0
2016-03-31T01:01:02.402Z,0
2016-03-31T01:02:02.405Z,0
2016-03-31T01:03:02.407Z,0
2016-03-31T01:04:02.426Z,0
2016-03-31T01:05:02.413Z,0
2016-03-31T01:06:02.400Z,0
2016-03-31T01:07:02.387Z,0
2016-03-31T01:08:02.390Z,0
2016-03-31T01:09:02.423Z,0
2016-03-31T01:10:02.412Z,0
2016-03-31T01:11:02.398Z,0
2016-03-31T01:12:02.386Z,0
2016-03-31T01:13:02.419Z,0
2016-03-31T01:14:02.406Z,0
2016-03-31T01:15:02.394Z,0
2016-03-31T01:16:02.396Z,0
2016-03-31T01:17:02.430Z,0
2016-03-31T01:18:02.386Z,0
2016-03-31T01:19:02.435Z,0
2016-03-31T01:20:02.407Z,0
2016-03-31T01:21:02.455Z,0
2016-03-31T01:22:02.396Z,0
2016-03-31T01:23:02.461Z,0
2016-03-31T01:24:02.386Z,0
2016-03-31T01:25:02.435Z,0
2016-03-31T01:26:02.407Z,0
2016-03-31T01:27:02.440Z,0
2016-03-31T01:28:02.396Z,0
2016-03-31T01:29:02.431Z,0
2016-03-31T01:30:02.401Z,0
2016-03-31T01:31:02.420Z,0
2016-03-31T01:32:02.407Z,0
2016-03-31T01:33:02.395Z,0
2016-03-31T01:34:02.428Z,0
2016-03-31T01:35:02.431Z,0
2016-03-31T01:36:02.434Z,0
2016-03-31T01:37:02.405Z,0
2016-03-31T01:38:02.439Z,0
2016-03-31T01:39:02.412Z,0
2016-03-31T01:40:02.429Z,0
2016-03-31T01:41:02.384Z,0
2016-03-31T01:42:02.388Z,0
2016-03-31T01:43:02.406Z,0
2016-03-31T01:44:02.440Z,0
2016-03-31T01:45:02.411Z,0
2016-03-31T01:46:02.430Z,0
2016-03-31T01:47:02.401Z,0
2016-03-31T01:48:02.403Z,0
2016-03-31T01:49:02.406Z,0
2016-03-31T01:50:02.425Z,0
2016-03-31T01:51:02.396Z,0
2016-03-31T01:52:02.399Z,0
2016-03-31T01:53:02.402Z,0
2016-03-31T01:54:02.419Z,0
2016-03-31T01:55:02.407Z,0
2016-03-31T01:56:02.410Z,0
2016-03-31T01:57:02.427Z,0
2016-03-31T01:58:02.399Z,0
2016-03-31T01:59:02.402Z,0
2016-03-31T02:00:02.421Z,0
2016-03-31T02:01:02.423Z,0
2016-03-31T02:02:02.426Z,0
2016-03-31T02:03:02.413Z,0
2016-03-31T02:04:02.415Z,0
2016-03-31T02:05:02.418Z,0
2016-03-31T02:06:02.484Z,0
2016-03-31T02:07:02.408Z,0
2016-03-31T02:08:02.404Z,0
2016-03-31T02:09:02.422Z,0
2016-03-31T02:10:02.409Z,0
2016-03-31T02:11:02.397Z,0
2016-03-31T02:12:02.399Z,0
2016-03-31T02:13:02.402Z,0
2016-03-31T02:14:02.420Z,0
2016-03-31T02:15:02.407Z,0
2016-03-31T02:16:02.409Z,0
2016-03-31T02:17:02.412Z,0
2016-03-31T02:18:02.402Z,0
2016-03-31T02:19:02.405Z,0
2016-03-31T02:20:02.424Z,0
2016-03-31T02:21:02.426Z,0
2016-03-31T02:22:02.413Z,0
2016-03-31T02:23:02.415Z,0
2016-03-31T02:24:02.418Z,0
2016-03-31T02:25:02.420Z,0
2016-03-31T02:26:02.408Z,0
2016-03-31T02:27:02.411Z,0
2016-03-31T02:28:02.428Z,0
2016-03-31T02:29:02.260Z,0
2016-03-31T02:30:02.403Z,0
2016-03-31T02:31:02.421Z,0
2016-03-31T02:32:02.424Z,0
2016-03-31T02:33:02.427Z,0
2016-03-31T02:34:02.414Z,0
2016-03-31T02:35:02.416Z,0
2016-03-31T02:36:02.419Z,0
2016-03-31T02:37:02.407Z,0
2016-03-31T02:38:02.409Z,0
2016-03-31T02:39:02.412Z,0
2016-03-31T02:40:02.415Z,0
2016-03-31T02:41:02.385Z,0
2016-03-31T02:42:02.405Z,0
2016-03-31T02:43:02.407Z,0
2016-03-31T02:44:02.426Z,0
2016-03-31T02:45:02.412Z,0
2016-03-31T02:46:02.416Z,0
2016-03-31T02:47:02.434Z,0
2016-03-31T02:48:02.404Z,0
2016-03-31T02:49:02.407Z,0
2016-03-31T02:50:02.426Z,0
2016-03-31T02:51:02.412Z,0
2016-03-31T02:52:02.432Z,0
2016-03-31T02:53:02.403Z,0
2016-03-31T02:54:02.406Z,0
2016-03-31T02:55:02.423Z,0
2016-03-31T02:56:02.395Z,0
2016-03-31T02:57:02.445Z,0
2016-03-31T02:58:02.400Z,0
2016-03-31T02:59:02.434Z,0
2016-03-31T03:00:02.406Z,0
2016-03-31T03:01:02.455Z,0
2016-03-31T03:02:02.396Z,0
2016-03-31T03:03:02.398Z,0
2016-03-31T03:04:02.433Z,0
2016-03-31T03:05:02.466Z,0
2016-03-31T03:06:02.406Z,0
2016-03-31T03:07:02.425Z,0
2016-03-31T03:08:02.527Z,0
2016-03-31T03:09:02.425Z,0
2016-03-31T03:10:02.396Z,0
2016-03-31T03:11:02.431Z,0
2016-03-31T03:12:02.402Z,0
2016-03-31T03:13:02.389Z,0
2016-03-31T03:14:02.423Z,0
2016-03-31T03:15:02.379Z,0
2016-03-31T03:16:02.428Z,0
2016-03-31T03:17:02.385Z,0
2016-03-31T03:18:02.403Z,0
2016-03-31T03:19:02.390Z,0
2016-03-31T03:20:02.407Z,0
2016-03-31T03:21:02.396Z,0
2016-03-31T03:22:02.398Z,0
2016-03-31T03:23:02.416Z,0
2016-03-31T03:24:02.372Z,0
2016-03-31T03:25:02.390Z,0
2016-03-31T03:26:02.377Z,0
2016-03-31T03:27:02.395Z,0
2016-03-31T03:28:02.383Z,0
2016-03-31T03:29:02.401Z,0
2016-03-31T03:30:02.387Z,0
2016-03-31T03:31:02.438Z,0
2016-03-31T03:32:02.393Z,0
2016-03-31T03:33:02.396Z,0
2016-03-31T03:34:02.399Z,0
2016-03-31T03:35:02.386Z,0
2016-03-31T03:36:02.419Z,0
2016-03-31T03:37:02.375Z,0
2016-03-31T03:38:02.394Z,0
2016-03-31T03:39:02.396Z,0
2016-03-31T03:40:02.367Z,0
2016-03-31T03:41:02.402Z,0
2016-03-31T03:42:02.373Z,0
2016-03-31T03:43:02.407Z,0
2016-03-31T03:44:02.411Z,0
2016-03-31T03:45:02.413Z,0
2016-03-31T03:46:02.383Z,0
2016-03-31T03:47:02.403Z,0
2016-03-31T03:48:02.389Z,0
2016-03-31T03:49:02.392Z,0
2016-03-31T03:50:02.394Z,0
2016-03-31T03:51:02.382Z,0
2016-03-31T03:52:02.385Z,0
2016-03-31T03:53:02.372Z,0
2016-03-31T03:54:02.375Z,0
2016-03-31T03:55:02.393Z,0
2016-03-31T03:56:02.379Z,0
2016-03-31T03:57:02.383Z,0
2016-03-31T03:58:02.401Z,0
2016-03-31T03:59:02.388Z,0
2016-03-31T04:00:02.390Z,0
2016-03-31T04:01:02.378Z,0
2016-03-31T04:02:02.223Z,0
2016-03-31T04:03:02.633Z,0
2016-03-31T04:04:02.386Z,0
2016-03-31T04:05:02.389Z,0
2016-03-31T04:06:02.406Z,0
2016-03-31T04:07:02.378Z,0
2016-03-31T04:08:02.381Z,0
2016-03-31T04:09:02.383Z,0
2016-03-31T04:10:02.402Z,0
2016-03-31T04:11:02.389Z,0
2016-03-31T04:12:02.682Z,0
2016-03-31T04:13:04.072Z,0
2016-03-31T04:14:02.633Z,0
2016-03-31T04:15:02.803Z,0
2016-03-31T04:16:02.524Z,0
2016-03-31T04:17:02.355Z,0
2016-03-31T04:18:02.357Z,0
2016-03-31T04:19:02.361Z,0
2016-03-31T04:20:02.348Z,0
2016-03-31T04:21:02.365Z,0
2016-03-31T04:22:02.353Z,0
2016-03-31T04:23:02.371Z,0
2016-03-31T04:24:02.343Z,0
2016-03-31T04:25:02.392Z,0
2016-03-31T04:26:02.417Z,0
2016-03-31T04:27:02.471Z,0
2016-03-31T04:28:02.543Z,0
2016-03-31T04:29:02.598Z,0
2016-03-31T04:30:02.642Z,0
2016-03-31T04:31:02.631Z,0
2016-03-31T04:32:02.653Z,0
2016-03-31T04:33:02.690Z,0
2016-03-31T04:34:02.696Z,0
2016-03-31T04:35:02.699Z,0
2016-03-31T04:36:02.739Z,0
2016-03-31T04:37:02.732Z,0
2016-03-31T04:38:02.726Z,0
2016-03-31T04:39:02.625Z,0
2016-03-31T04:40:02.743Z,0
2016-03-31T04:41:02.732Z,0
2016-03-31T04:42:02.769Z,0
2016-03-31T04:43:02.742Z,0
2016-03-31T04:44:02.763Z,0
2016-03-31T04:45:02.736Z,0
2016-03-31T04:46:02.756Z,0
2016-03-31T04:47:02.759Z,0
2016-03-31T04:48:02.748Z,0
2016-03-31T04:49:02.736Z,0
2016-03-31T04:50:02.771Z,0
2016-03-31T04:51:02.774Z,0
2016-03-31T04:52:02.746Z,0
2016-03-31T04:53:02.780Z,0
2016-03-31T04:54:02.752Z,0
2016-03-31T04:55:02.802Z,0
2016-03-31T04:56:02.758Z,0
2016-03-31T04:57:02.792Z,0
2016-03-31T04:58:02.748Z,0
2016-03-31T04:59:02.781Z,0
2016-03-31T05:00:02.753Z,0
2016-03-31T05:01:02.803Z,0
2016-03-31T05:02:02.758Z,0
2016-03-31T05:03:02.825Z,0
2016-03-31T05:04:02.764Z,5
2016-03-31T05:05:02.767Z,5
2016-03-31T05:06:02.755Z,5
2016-03-31T05:07:02.758Z,5
2016-03-31T05:08:02.760Z,5
2016-03-31T05:09:02.763Z,5
2016-03-31T05:10:02.749Z,5
2016-03-31T05:11:02.611Z,5
2016-03-31T05:12:02.755Z,5
2016-03-31T05:13:02.757Z,10
2016-03-31T05:14:02.760Z,10
2016-03-31T05:15:02.763Z,10
2016-03-31T05:16:02.749Z,10
2016-03-31T05:17:02.753Z,10
2016-03-31T05:18:02.771Z,10
2016-03-31T05:19:02.742Z,15
2016-03-31T05:20:02.746Z,15
2016-03-31T05:21:02.748Z,15
2016-03-31T05:22:02.751Z,15
2016-03-31T05:23:02.753Z,15
2016-03-31T05:24:02.756Z,20
2016-03-31T05:25:02.774Z,20
2016-03-31T05:26:02.777Z,20
2016-03-31T05:27:02.749Z,20
2016-03-31T05:28:02.751Z,20
2016-03-31T05:29:02.784Z,20
2016-03-31T05:30:02.757Z,25
2016-03-31T05:31:02.743Z,25
2016-03-31T05:32:02.777Z,25
2016-03-31T05:33:02.748Z,25
2016-03-31T05:34:02.751Z,30
2016-03-31T05:35:02.753Z,30
2016-03-31T05:36:02.741Z,30
2016-03-31T05:37:02.759Z,35
2016-03-31T05:38:02.746Z,35
2016-03-31T05:39:02.750Z,35
2016-03-31T05:40:02.752Z,35
2016-03-31T05:41:02.755Z,40
2016-03-31T05:42:02.741Z,40
2016-03-31T05:43:02.744Z,40
2016-03-31T05:44:02.777Z,45
2016-03-31T05:45:02.750Z,45
2016-03-31T05:46:02.752Z,50
2016-03-31T05:47:02.755Z,50
2016-03-31T05:48:02.773Z,55
2016-03-31T05:49:02.777Z,60
2016-03-31T05:50:02.748Z,65
2016-03-31T05:51:02.765Z,75
2016-03-31T05:52:02.769Z,75
2016-03-31T05:53:02.740Z,75
2016-03-31T05:54:02.743Z,80
2016-03-31T05:55:02.793Z,90
2016-03-31T05:56:02.748Z,100
2016-03-31T05:57:02.735Z,115
2016-03-31T05:58:02.784Z,145
2016-03-31T05:59:02.740Z,160
2016-03-31T06:00:02.742Z,195
2016-03-31T06:01:02.762Z,200
2016-03-31T06:02:02.764Z,180
2016-03-31T06:03:02.767Z,140
2016-03-31T06:04:02.754Z,125
2016-03-31T06:05:02.741Z,145
2016-03-31T06:06:02.744Z,335
2016-03-31T06:07:02.747Z,375
2016-03-31T06:08:02.749Z,390
2016-03-31T06:09:02.752Z,405
2016-03-31T06:10:02.755Z,405
2016-03-31T06:11:02.758Z,430
2016-03-31T06:12:02.791Z,430
2016-03-31T06:13:02.747Z,280
2016-03-31T06:14:02.766Z,220
2016-03-31T06:15:02.768Z,335
2016-03-31T06:16:02.755Z,445
2016-03-31T06:17:02.774Z,365
2016-03-31T06:18:02.776Z,315
2016-03-31T06:19:02.763Z,325
2016-03-31T06:20:02.765Z,355
2016-03-31T06:21:02.768Z,475
2016-03-31T06:22:02.771Z,445
2016-03-31T06:23:02.774Z,365
2016-03-31T06:24:02.776Z,490
2016-03-31T06:25:02.779Z,495
2016-03-31T06:26:02.798Z,515
2016-03-31T06:27:02.785Z,555
2016-03-31T06:28:02.787Z,535
2016-03-31T06:29:02.821Z,520
2016-03-31T06:30:02.777Z,555
2016-03-31T06:31:02.795Z,550
2016-03-31T06:32:02.798Z,545
2016-03-31T06:33:02.816Z,560
2016-03-31T06:34:02.804Z,580
2016-03-31T06:35:02.806Z,565
2016-03-31T06:36:02.808Z,585
2016-03-31T06:37:02.812Z,595
2016-03-31T06:38:02.814Z,610
2016-03-31T06:39:02.833Z,605
2016-03-31T06:40:02.804Z,610
2016-03-31T06:41:02.822Z,600
2016-03-31T06:42:02.825Z,610
2016-03-31T06:43:02.843Z,610
2016-03-31T06:44:02.830Z,620
2016-03-31T06:45:02.849Z,655
2016-03-31T06:46:02.835Z,630
2016-03-31T06:47:02.870Z,605
2016-03-31T06:48:02.872Z,655
2016-03-31T06:49:02.859Z,665
2016-03-31T06:50:02.863Z,660
2016-03-31T06:51:02.880Z,660
2016-03-31T06:52:02.882Z,615
2016-03-31T06:53:02.886Z,605
2016-03-31T06:54:02.873Z,660
2016-03-31T06:55:02.907Z,665
2016-03-31T06:56:02.879Z,675
2016-03-31T06:57:02.912Z,690
2016-03-31T06:58:02.915Z,700
2016-03-31T06:59:02.933Z,710
2016-03-31T07:00:03.701Z,695
2016-03-31T07:01:02.923Z,765
2016-03-31T07:02:02.956Z,775
2016-03-31T07:03:02.945Z,720
2016-03-31T07:04:02.931Z,685
2016-03-31T07:05:02.949Z,675
2016-03-31T07:06:02.968Z,725
2016-03-31T07:07:02.955Z,765
2016-03-31T07:08:03.025Z,745
2016-03-31T07:09:02.808Z,780
2016-03-31T07:10:02.967Z,790
2016-03-31T07:11:02.970Z,800
2016-03-31T07:12:02.988Z,810
2016-03-31T07:13:02.991Z,805
2016-03-31T07:14:03.025Z,815
2016-03-31T07:15:03.090Z,735
2016-03-31T07:16:03.016Z,580
2016-03-31T07:17:03.033Z,730
2016-03-31T07:18:03.035Z,860
2016-03-31T07:19:03.039Z,800
2016-03-31T07:20:03.041Z,875
2016-03-31T07:21:03.043Z,865
2016-03-31T07:22:03.062Z,835
2016-03-31T07:23:03.050Z,810
2016-03-31T07:24:03.052Z,835
2016-03-31T07:25:03.054Z,865
2016-03-31T07:26:03.073Z,820
2016-03-31T07:27:22.857Z,860
2016-03-31T07:28:03.109Z,880
2016-03-31T07:29:03.097Z,855
2016-03-31T07:30:03.115Z,895
2016-03-31T07:31:03.102Z,895
2016-03-31T07:32:03.105Z,835
2016-03-31T07:33:03.108Z,900
2016-03-31T07:34:03.111Z,860
2016-03-31T07:35:03.128Z,825
2016-03-31T07:36:03.147Z,865
2016-03-31T07:37:03.150Z,810
2016-03-31T07:38:03.167Z,775
2016-03-31T07:39:03.170Z,810
2016-03-31T07:40:03.173Z,810
2016-03-31T07:41:03.175Z,820
2016-03-31T07:42:03.178Z,790
2016-03-31T07:43:03.181Z,815
2016-03-31T07:44:03.216Z,825
2016-03-31T07:45:03.249Z,855
2016-03-31T07:46:03.205Z,845
2016-03-31T07:47:03.926Z,835
2016-03-31T07:48:03.242Z,825
2016-03-31T07:49:03.244Z,830
2016-03-31T07:50:03.263Z,870
2016-03-31T07:51:03.266Z,955
2016-03-31T07:52:03.268Z,1000
2016-03-31T07:53:03.271Z,1005
2016-03-31T07:54:03.273Z,980
2016-03-31T07:55:03.292Z,950
2016-03-31T07:56:03.279Z,940
2016-03-31T07:57:03.297Z,925
2016-03-31T07:58:03.315Z,840
2016-03-31T07:59:03.303Z,1095
2016-03-31T08:00:03.352Z,1015
2016-03-31T08:01:03.323Z,825
2016-03-31T08:02:03.326Z,820
2016-03-31T08:03:03.359Z,805
2016-03-31T08:04:03.347Z,870
2016-03-31T08:05:03.365Z,815
2016-03-31T08:06:03.368Z,760
2016-03-31T08:07:03.371Z,660
2016-03-31T08:08:03.389Z,620
2016-03-31T08:09:03.376Z,670
2016-03-31T08:10:03.395Z,590
2016-03-31T08:11:03.382Z,500
2016-03-31T08:12:03.416Z,495
2016-03-31T08:13:03.419Z,475
2016-03-31T08:14:03.405Z,525
2016-03-31T08:15:03.424Z,545
2016-03-31T08:16:03.426Z,545
2016-03-31T08:17:03.445Z,600
2016-03-31T08:18:03.447Z,605
2016-03-31T08:19:03.466Z,595
2016-03-31T08:20:03.468Z,610
2016-03-31T08:21:03.471Z,635
2016-03-31T08:22:03.474Z,660
2016-03-31T08:23:03.492Z,645
2016-03-31T08:24:03.495Z,665
2016-03-31T08:25:03.497Z,685
2016-03-31T08:26:03.500Z,680
2016-03-31T08:27:03.503Z,500
2016-03-31T08:28:03.520Z,250
2016-03-31T08:29:03.524Z,200
2016-03-31T08:30:03.511Z,195
2016-03-31T08:31:03.529Z,190
2016-03-31T08:32:03.562Z,185
2016-03-31T08:33:03.565Z,170
2016-03-31T08:34:03.568Z,165
2016-03-31T08:35:03.571Z,165
2016-03-31T08:36:03.620Z,160
2016-03-31T08:37:03.576Z,160
2016-03-31T08:38:03.579Z,155
2016-03-31T08:39:03.441Z,155
2016-03-31T08:40:03.585Z,155
2016-03-31T08:41:03.587Z,150
2016-03-31T08:42:03.590Z,150
2016-03-31T08:43:03.625Z,150
2016-03-31T08:44:03.627Z,150
2016-03-31T08:45:03.645Z,145
2016-03-31T08:46:03.648Z,145
2016-03-31T08:47:03.650Z,145
2016-03-31T08:48:03.669Z,145
2016-03-31T08:49:03.641Z,140
2016-03-31T08:50:03.658Z,140
2016-03-31T08:51:03.660Z,140
2016-03-31T08:52:03.726Z,140
2016-03-31T08:53:03.682Z,140
2016-03-31T08:54:03.669Z,140
2016-03-31T08:55:03.687Z,135
2016-03-31T08:56:03.690Z,135
2016-03-31T08:57:03.709Z,135
2016-03-31T08:58:03.696Z,135
2016-03-31T08:59:03.714Z,135
2016-03-31T09:00:03.701Z,135
2016-03-31T09:01:03.704Z,135
2016-03-31T09:02:03.723Z,135
2016-03-31T09:03:03.725Z,130
2016-03-31T09:04:03.742Z,130
2016-03-31T09:05:03.762Z,130
2016-03-31T09:06:03.764Z,130
2016-03-31T09:07:03.750Z,130
2016-03-31T09:08:03.753Z,130
2016-03-31T09:09:03.756Z,130
2016-03-31T09:10:03.759Z,130
2016-03-31T09:11:03.761Z,125
2016-03-31T09:12:03.764Z,125
2016-03-31T09:13:03.783Z,125
2016-03-31T09:14:03.800Z,125
2016-03-31T09:15:03.772Z,125
2016-03-31T09:16:03.791Z,125
2016-03-31T09:17:03.794Z,120
2016-03-31T09:18:03.875Z,120
2016-03-31T09:19:03.799Z,120
2016-03-31T09:20:03.817Z,120
2016-03-31T09:21:03.820Z,120
2016-03-31T09:22:03.807Z,115
2016-03-31T09:23:03.825Z,115
2016-03-31T09:24:03.827Z,115
2016-03-31T09:25:03.847Z,115
2016-03-31T09:26:03.849Z,115
2016-03-31T09:27:03.852Z,115
2016-03-31T09:28:03.871Z,115
2016-03-31T09:29:03.920Z,115
2016-03-31T09:30:03.857Z,115
2016-03-31T09:31:03.860Z,115
2016-03-31T09:32:03.878Z,115
2016-03-31T09:33:03.803Z,115
2016-03-31T09:34:03.899Z,115
2016-03-31T09:35:03.902Z,115
2016-03-31T09:36:03.873Z,115
2016-03-31T09:37:03.923Z,115
2016-03-31T09:38:03.926Z,115
2016-03-31T09:39:03.912Z,115
2016-03-31T09:40:03.900Z,115
2016-03-31T09:41:03.903Z,115
2016-03-31T09:42:03.906Z,115
2016-03-31T09:43:03.908Z,115
2016-03-31T09:44:03.942Z,115
2016-03-31T09:45:03.757Z,115
2016-03-31T09:46:03.932Z,115
2016-03-31T09:47:03.934Z,115
2016-03-31T09:48:03.999Z,115
2016-03-31T09:49:03.939Z,115
2016-03-31T09:50:03.941Z,115
2016-03-31T09:51:03.960Z,115
2016-03-31T09:52:03.947Z,115
2016-03-31T09:53:03.966Z,115
2016-03-31T09:54:03.969Z,115
2016-03-31T09:55:03.988Z,115
2016-03-31T09:56:03.974Z,115
2016-03-31T09:57:03.977Z,115
2016-03-31T09:58:03.824Z,115
2016-03-31T09:59:03.998Z,115
2016-03-31T10:00:04.001Z,115
2016-03-31T10:01:04.003Z,115
2016-03-31T10:02:03.990Z,115
2016-03-31T10:03:04.430Z,115
2016-03-31T10:04:03.996Z,115
2016-03-31T10:05:03.999Z,115
2016-03-31T10:06:04.001Z,115
2016-03-31T10:07:04.003Z,115
2016-03-31T10:08:04.006Z,110
2016-03-31T10:09:04.040Z,120
2016-03-31T10:10:04.043Z,120
2016-03-31T10:11:04.046Z,120
2016-03-31T10:12:04.033Z,115
2016-03-31T10:13:04.081Z,115
2016-03-31T10:14:04.053Z,105
2016-03-31T10:15:04.056Z,115
2016-03-31T10:16:04.044Z,115
2016-03-31T10:17:04.047Z,110
2016-03-31T10:18:04.080Z,120
2016-03-31T10:19:04.067Z,130
2016-03-31T10:20:04.055Z,135
2016-03-31T10:21:04.088Z,135
2016-03-31T10:22:04.076Z,135
2016-03-31T10:23:04.078Z,135
2016-03-31T10:24:04.066Z,135
2016-03-31T10:25:04.083Z,125
2016-03-31T10:26:04.086Z,120
2016-03-31T10:27:04.089Z,125
2016-03-31T10:28:04.107Z,125
2016-03-31T10:29:04.094Z,135
2016-03-31T10:30:04.096Z,130
2016-03-31T10:31:04.115Z,125
2016-03-31T10:32:04.102Z,120
2016-03-31T10:33:04.136Z,120
2016-03-31T10:34:04.107Z,120
2016-03-31T10:35:04.141Z,115
2016-03-31T10:36:04.143Z,110
2016-03-31T10:37:04.146Z,100
2016-03-31T10:38:04.149Z,110
2016-03-31T10:39:04.137Z,105
2016-03-31T10:40:04.155Z,120
2016-03-31T10:41:04.126Z,140
2016-03-31T10:42:04.145Z,155
2016-03-31T10:43:04.147Z,155
2016-03-31T10:44:04.151Z,145
2016-03-31T10:45:04.168Z,140
2016-03-31T10:46:04.187Z,130
2016-03-31T10:47:04.158Z,120
2016-03-31T10:48:04.020Z,110
2016-03-31T10:49:04.179Z,110
2016-03-31T10:50:04.181Z,115
2016-03-31T10:51:04.184Z,120
2016-03-31T10:52:04.172Z,115
2016-03-31T10:53:04.175Z,115
2016-03-31T10:54:04.192Z,115
2016-03-31T10:55:04.195Z,115
2016-03-31T10:56:04.213Z,115
2016-03-31T10:57:04.216Z,115
2016-03-31T10:58:04.203Z,115
2016-03-31T10:59:04.206Z,115
2016-03-31T11:00:04.209Z,110
2016-03-31T11:01:04.211Z,110
2016-03-31T11:02:04.214Z,110
2016-03-31T11:03:04.217Z,110
2016-03-31T11:04:04.219Z,110
2016-03-31T11:05:04.238Z,110
2016-03-31T11:06:04.241Z,105
2016-03-31T11:07:04.227Z,110
2016-03-31T11:08:04.574Z,110
2016-03-31T11:09:04.248Z,110
2016-03-31T11:10:04.251Z,110
2016-03-31T11:11:04.238Z,105
2016-03-31T11:12:04.241Z,105
2016-03-31T11:13:04.259Z,105
2016-03-31T11:14:04.246Z,115
2016-03-31T11:15:04.249Z,115
2016-03-31T11:16:04.268Z,130
2016-03-31T11:17:04.270Z,130
2016-03-31T11:18:04.257Z,130
2016-03-31T11:19:04.260Z,135
2016-03-31T11:20:04.278Z,130
2016-03-31T11:21:04.281Z,130
2016-03-31T11:22:04.284Z,125
2016-03-31T11:23:04.286Z,120
2016-03-31T11:24:04.289Z,120
2016-03-31T11:25:04.292Z,125
2016-03-31T11:26:04.295Z,125
2016-03-31T11:27:04.297Z,130
2016-03-31T11:28:04.300Z,130
2016-03-31T11:29:04.302Z,135
2016-03-31T11:30:04.305Z,140
2016-03-31T11:31:15.229Z,145
2016-03-31T11:32:04.310Z,150
2016-03-31T11:33:04.329Z,150
2016-03-31T11:34:04.315Z,150
2016-03-31T11:35:04.319Z,155
2016-03-31T11:36:04.337Z,170
2016-03-31T11:37:04.339Z,175
2016-03-31T11:38:04.342Z,185
2016-03-31T11:39:04.360Z,180
2016-03-31T11:40:04.707Z,185
2016-03-31T11:41:04.335Z,180
2016-03-31T11:42:04.353Z,180
2016-03-31T11:43:04.356Z,180
2016-03-31T11:44:04.358Z,175
2016-03-31T11:45:04.204Z,175
2016-03-31T11:46:04.364Z,180
2016-03-31T11:47:04.367Z,180
2016-03-31T11:48:04.400Z,185
2016-03-31T11:49:04.387Z,180
2016-03-31T11:50:04.374Z,175
2016-03-31T11:51:04.392Z,165
2016-03-31T11:52:04.380Z,155
2016-03-31T11:53:04.383Z,150
2016-03-31T11:54:04.386Z,145
2016-03-31T11:55:04.388Z,140
2016-03-31T11:56:04.391Z,140
2016-03-31T11:57:04.440Z,140
2016-03-31T11:58:04.411Z,140
2016-03-31T11:59:04.414Z,140
2016-03-31T12:00:04.401Z,135
2016-03-31T12:01:04.420Z,135
2016-03-31T12:02:04.422Z,130
2016-03-31T12:03:04.472Z,135
2016-03-31T12:04:04.428Z,135
2016-03-31T12:05:04.416Z,135
2016-03-31T12:06:04.433Z,140
2016-03-31T12:07:04.421Z,140
2016-03-31T12:08:04.438Z,145
2016-03-31T12:09:04.441Z,145
2016-03-31T12:10:04.443Z,150
2016-03-31T12:11:04.431Z,155
2016-03-31T12:12:04.449Z,155
2016-03-31T12:13:04.452Z,155
2016-03-31T12:14:04.455Z,150
2016-03-31T12:15:04.473Z,150
2016-03-31T12:16:04.476Z,150
2016-03-31T12:17:04.462Z,145
2016-03-31T12:18:04.481Z,150
2016-03-31T12:19:04.467Z,145
2016-03-31T12:20:04.503Z,145
2016-03-31T12:21:04.473Z,150
2016-03-31T12:22:04.476Z,145
2016-03-31T12:23:04.495Z,140
2016-03-31T12:24:04.545Z,140
2016-03-31T12:25:04.500Z,140
2016-03-31T12:26:04.519Z,140
2016-03-31T12:27:04.505Z,140
2016-03-31T12:28:04.524Z,145
2016-03-31T12:29:04.526Z,150
2016-03-31T12:30:04.513Z,150
2016-03-31T12:31:04.516Z,155
2016-03-31T12:32:04.831Z,160
2016-03-31T12:33:04.521Z,165
2016-03-31T12:34:32.838Z,170
2016-03-31T12:35:04.542Z,170
2016-03-31T12:36:04.560Z,175
2016-03-31T12:37:04.548Z,175
2016-03-31T12:38:04.551Z,175
2016-03-31T12:39:04.554Z,175
2016-03-31T12:40:04.556Z,175
2016-03-31T12:41:04.543Z,180
2016-03-31T12:42:04.404Z,185
2016-03-31T12:43:04.564Z,180
2016-03-31T12:44:04.567Z,185
2016-03-31T12:45:04.570Z,190
2016-03-31T12:46:04.572Z,190
2016-03-31T12:47:04.575Z,195
2016-03-31T12:48:04.592Z,195
2016-03-31T12:49:04.595Z,190
2016-03-31T12:50:04.583Z,190
2016-03-31T12:51:04.586Z,190
2016-03-31T12:52:04.589Z,190
2016-03-31T12:53:04.606Z,195
2016-03-31T12:54:04.609Z,195
2016-03-31T12:55:04.627Z,190
2016-03-31T12:56:04.630Z,190
2016-03-31T12:57:04.617Z,185
2016-03-31T12:58:04.620Z,185
2016-03-31T12:59:04.622Z,185
2016-03-31T13:00:04.625Z,185
2016-03-31T13:01:04.612Z,185
2016-03-31T13:02:04.631Z,185
2016-03-31T13:03:04.633Z,190
2016-03-31T13:04:04.651Z,185
2016-03-31T13:05:04.654Z,185
2016-03-31T13:06:04.658Z,190
2016-03-31T13:07:04.644Z,190
2016-03-31T13:08:04.647Z,195
2016-03-31T13:09:04.666Z,195
2016-03-31T13:10:04.637Z,195
2016-03-31T13:11:04.654Z,195
2016-03-31T13:12:04.704Z,195
2016-03-31T13:13:04.676Z,195
2016-03-31T13:14:04.678Z,195
2016-03-31T13:15:04.681Z,195
2016-03-31T13:16:04.684Z,190
2016-03-31T13:17:04.687Z,190
2016-03-31T13:18:04.690Z,190
2016-03-31T13:19:04.692Z,185
2016-03-31T13:20:04.757Z,185
2016-03-31T13:21:04.697Z,185
2016-03-31T13:22:04.700Z,185
2016-03-31T13:23:04.703Z,180
2016-03-31T13:24:05.112Z,175
2016-03-31T13:25:04.709Z,170
2016-03-31T13:26:04.726Z,165
2016-03-31T13:27:04.729Z,155
2016-03-31T13:28:04.716Z,155
2016-03-31T13:29:04.734Z,145
2016-03-31T13:30:04.737Z,145
2016-03-31T13:31:04.802Z,145
2016-03-31T13:32:04.730Z,145
2016-03-31T13:33:04.714Z,145
2016-03-31T13:34:04.698Z,145
2016-03-31T13:35:04.682Z,145
2016-03-31T13:36:04.665Z,145
2016-03-31T13:37:04.655Z,145
2016-03-31T13:38:04.651Z,145
2016-03-31T13:39:04.647Z,150
2016-03-31T13:40:04.628Z,150
2016-03-31T13:41:04.654Z,150
2016-03-31T13:42:04.654Z,150
2016-03-31T13:43:04.654Z,150
2016-03-31T13:44:04.670Z,145
2016-03-31T13:45:04.670Z,150
2016-03-31T13:46:04.655Z,150
2016-03-31T13:47:04.656Z,150
2016-03-31T13:48:04.657Z,150
2016-03-31T13:49:04.659Z,140
2016-03-31T13:50:04.661Z,135
2016-03-31T13:51:04.662Z,130
2016-03-31T13:52:04.648Z,125
2016-03-31T13:53:04.666Z,120
2016-03-31T13:54:04.685Z,110
2016-03-31T13:55:04.671Z,115
2016-03-31T13:56:04.689Z,125
2016-03-31T13:57:04.676Z,140
2016-03-31T13:58:04.678Z,145
2016-03-31T13:59:04.681Z,145
2016-03-31T14:00:04.683Z,150
2016-03-31T14:01:04.703Z,150
2016-03-31T14:02:04.720Z,145
2016-03-31T14:03:04.708Z,140
2016-03-31T14:04:04.711Z,135
2016-03-31T14:05:04.572Z,130
2016-03-31T14:06:04.716Z,120
2016-03-31T14:07:04.719Z,110
2016-03-31T14:08:04.722Z,105